sensor_id;sensor_type;location;lat;lon;timestamp;pressure;altitude;pressure_sealevel;temperature;humidity
37892;BME280;45797;47.466;9.486;2023-11-21T00:02:46;95384.41;;;10.95;73.47
37892;BME280;45797;47.466;9.486;2023-11-21T00:07:46;95374.88;;;10.94;73.54
37892;BME280;45797;47.466;9.486;2023-11-21T00:12:47;95365.22;;;10.94;73.28
37892;BME280;45797;47.466;9.486;2023-11-21T00:17:48;95364.53;;;10.92;73.67
37892;BME280;45797;47.466;9.486;2023-11-21T00:22:50;95354.19;;;10.91;73.90
37892;BME280;45797;47.466;9.486;2023-11-21T00:27:50;95360.25;;;10.91;73.11
37892;BME280;45797;47.466;9.486;2023-11-21T00:32:51;95360.59;;;10.86;73.45
37892;BME280;45797;47.466;9.486;2023-11-21T00:37:59;95359.94;;;10.73;73.95
37892;BME280;45797;47.466;9.486;2023-11-21T00:43:03;95358.75;;;10.66;73.84
37892;BME280;45797;47.466;9.486;2023-11-21T00:48:04;95364.94;;;10.65;73.96
37892;BME280;45797;47.466;9.486;2023-11-21T00:53:11;95351.13;;;10.63;74.17
37892;BME280;45797;47.466;9.486;2023-11-21T00:58:12;95347.56;;;10.64;74.41
37892;BME280;45797;47.466;9.486;2023-11-21T01:03:13;95343.28;;;10.63;74.13
37892;BME280;45797;47.466;9.486;2023-11-21T01:08:16;95350.06;;;10.66;73.89
37892;BME280;45797;47.466;9.486;2023-11-21T01:13:17;95338.63;;;10.67;73.62
37892;BME280;45797;47.466;9.486;2023-11-21T01:18:23;95330.75;;;10.67;73.80
37892;BME280;45797;47.466;9.486;2023-11-21T01:23:26;95328.97;;;10.67;73.86
37892;BME280;45797;47.466;9.486;2023-11-21T01:28:37;95331.72;;;10.66;73.56
37892;BME280;45797;47.466;9.486;2023-11-21T01:33:37;95334.34;;;10.66;73.12
37892;BME280;45797;47.466;9.486;2023-11-21T01:38:37;95343.03;;;10.66;72.87
37892;BME280;45797;47.466;9.486;2023-11-21T01:43:38;95336.00;;;10.67;73.07
37892;BME280;45797;47.466;9.486;2023-11-21T01:48:38;95343.16;;;10.65;72.94
37892;BME280;45797;47.466;9.486;2023-11-21T01:53:53;95348.53;;;10.63;72.85
37892;BME280;45797;47.466;9.486;2023-11-21T01:58:54;95346.59;;;10.65;73.13
37892;BME280;45797;47.466;9.486;2023-11-21T02:03:54;95348.53;;;10.63;73.39
37892;BME280;45797;47.466;9.486;2023-11-21T02:08:55;95338.03;;;10.63;73.27
37892;BME280;45797;47.466;9.486;2023-11-21T02:13:58;95332.81;;;10.63;73.60
37892;BME280;45797;47.466;9.486;2023-11-21T02:19:13;95322.69;;;10.58;73.81
37892;BME280;45797;47.466;9.486;2023-11-21T02:24:22;95326.97;;;10.59;74.12
37892;BME280;45797;47.466;9.486;2023-11-21T02:29:40;95324.59;;;10.56;73.79
37892;BME280;45797;47.466;9.486;2023-11-21T02:35:05;95315.09;;;10.55;73.95
37892;BME280;45797;47.466;9.486;2023-11-21T02:40:10;95308.75;;;10.58;73.92
37892;BME280;45797;47.466;9.486;2023-11-21T02:45:20;95302.81;;;10.56;74.20
37892;BME280;45797;47.466;9.486;2023-11-21T02:50:25;95294.13;;;10.55;74.26
37892;BME280;45797;47.466;9.486;2023-11-21T02:55:35;95295.09;;;10.54;74.21
37892;BME280;45797;47.466;9.486;2023-11-21T03:00:38;95299.50;;;10.54;74.40
37892;BME280;45797;47.466;9.486;2023-11-21T03:05:43;95304.03;;;10.52;74.42
37892;BME280;45797;47.466;9.486;2023-11-21T03:10:45;95314.72;;;10.49;74.17
37892;BME280;45797;47.466;9.486;2023-11-21T03:15:48;95319.97;;;10.49;74.10
37892;BME280;45797;47.466;9.486;2023-11-21T03:20:54;95309.75;;;10.46;74.50
37892;BME280;45797;47.466;9.486;2023-11-21T03:25:54;95323.09;;;10.43;74.28
37892;BME280;45797;47.466;9.486;2023-11-21T03:30:56;95322.25;;;10.42;74.29
37892;BME280;45797;47.466;9.486;2023-11-21T03:35:58;95323.19;;;10.41;74.71
37892;BME280;45797;47.466;9.486;2023-11-21T03:41:02;95335.56;;;10.39;74.48
37892;BME280;45797;47.466;9.486;2023-11-21T03:46:05;95339.41;;;10.35;74.41
37892;BME280;45797;47.466;9.486;2023-11-21T03:51:07;95332.13;;;10.27;74.65
37892;BME280;45797;47.466;9.486;2023-11-21T03:56:08;95345.66;;;10.21;74.44
37892;BME280;45797;47.466;9.486;2023-11-21T04:01:24;95341.13;;;10.12;74.82
37892;BME280;45797;47.466;9.486;2023-11-21T04:06:24;95339.72;;;10.08;74.73
37892;BME280;45797;47.466;9.486;2023-11-21T04:11:36;95346.38;;;10.01;74.76
37892;BME280;45797;47.466;9.486;2023-11-21T04:16:36;95357.66;;;10.01;74.57
37892;BME280;45797;47.466;9.486;2023-11-21T04:21:37;95355.06;;;10.01;74.93
37892;BME280;45797;47.466;9.486;2023-11-21T04:26:45;95350.19;;;9.97;75.16
37892;BME280;45797;47.466;9.486;2023-11-21T04:31:46;95352.31;;;9.92;74.97
37892;BME280;45797;47.466;9.486;2023-11-21T04:36:50;95355.31;;;9.87;74.92
37892;BME280;45797;47.466;9.486;2023-11-21T04:41:51;95361.69;;;9.83;75.53
37892;BME280;45797;47.466;9.486;2023-11-21T04:47:00;95345.53;;;9.78;75.75
37892;BME280;45797;47.466;9.486;2023-11-21T04:52:06;95355.38;;;9.74;76.13
37892;BME280;45797;47.466;9.486;2023-11-21T04:57:16;95355.88;;;9.68;75.95
37892;BME280;45797;47.466;9.486;2023-11-21T05:02:19;95347.06;;;9.69;76.29
37892;BME280;45797;47.466;9.486;2023-11-21T05:07:22;95359.19;;;9.70;76.29
37892;BME280;45797;47.466;9.486;2023-11-21T05:12:23;95358.47;;;9.68;76.10
37892;BME280;45797;47.466;9.486;2023-11-21T05:17:24;95354.19;;;9.67;75.92
37892;BME280;45797;47.466;9.486;2023-11-21T05:22:25;95350.84;;;9.65;76.14
37892;BME280;45797;47.466;9.486;2023-11-21T05:27:32;95351.91;;;9.63;76.60
37892;BME280;45797;47.466;9.486;2023-11-21T05:32:34;95359.06;;;9.61;76.53
37892;BME280;45797;47.466;9.486;2023-11-21T05:37:41;95370.78;;;9.55;76.42
37892;BME280;45797;47.466;9.486;2023-11-21T05:42:54;95369.97;;;9.55;76.48
37892;BME280;45797;47.466;9.486;2023-11-21T05:47:58;95378.63;;;9.55;76.87
37892;BME280;45797;47.466;9.486;2023-11-21T05:53:01;95372.69;;;9.53;76.47
37892;BME280;45797;47.466;9.486;2023-11-21T05:58:06;95374.72;;;9.50;76.28
37892;BME280;45797;47.466;9.486;2023-11-21T06:03:13;95378.00;;;9.40;76.24
37892;BME280;45797;47.466;9.486;2023-11-21T06:08:23;95375.97;;;9.33;76.43
37892;BME280;45797;47.466;9.486;2023-11-21T06:13:44;95376.19;;;9.30;76.50
37892;BME280;45797;47.466;9.486;2023-11-21T06:18:45;95369.91;;;9.32;76.14
37892;BME280;45797;47.466;9.486;2023-11-21T06:23:46;95379.53;;;9.32;76.00
37892;BME280;45797;47.466;9.486;2023-11-21T06:29:04;95377.97;;;9.29;76.28
37892;BME280;45797;47.466;9.486;2023-11-21T06:34:04;95381.41;;;9.30;76.26
37892;BME280;45797;47.466;9.486;2023-11-21T06:39:05;95383.19;;;9.29;76.43
37892;BME280;45797;47.466;9.486;2023-11-21T06:44:16;95389.34;;;9.28;76.43
37892;BME280;45797;47.466;9.486;2023-11-21T06:49:17;95401.50;;;9.29;76.39
37892;BME280;45797;47.466;9.486;2023-11-21T06:54:19;95400.53;;;9.30;76.11
37892;BME280;45797;47.466;9.486;2023-11-21T06:59:22;95396.97;;;9.31;76.26
37892;BME280;45797;47.466;9.486;2023-11-21T07:04:25;95411.72;;;9.32;76.02
37892;BME280;45797;47.466;9.486;2023-11-21T07:09:30;95413.38;;;9.33;76.10
37892;BME280;45797;47.466;9.486;2023-11-21T07:14:32;95416.81;;;9.34;75.67
37892;BME280;45797;47.466;9.486;2023-11-21T07:19:32;95419.19;;;9.37;76.01
37892;BME280;45797;47.466;9.486;2023-11-21T07:24:32;95419.13;;;9.38;75.66
37892;BME280;45797;47.466;9.486;2023-11-21T07:29:32;95422.56;;;9.39;76.13
37892;BME280;45797;47.466;9.486;2023-11-21T07:34:33;95424.22;;;9.40;75.78
37892;BME280;45797;47.466;9.486;2023-11-21T07:39:39;95415.44;;;9.41;75.79
37892;BME280;45797;47.466;9.486;2023-11-21T07:44:42;95415.91;;;9.46;75.77
37892;BME280;45797;47.466;9.486;2023-11-21T07:49:49;95421.41;;;9.54;75.05
37892;BME280;45797;47.466;9.486;2023-11-21T07:54:50;95429.53;;;9.62;75.26
37892;BME280;45797;47.466;9.486;2023-11-21T08:00:07;95427.41;;;9.67;75.50
37892;BME280;45797;47.466;9.486;2023-11-21T08:05:12;95443.13;;;9.79;74.50
37892;BME280;45797;47.466;9.486;2023-11-21T08:10:23;95435.44;;;9.88;74.70
37892;BME280;45797;47.466;9.486;2023-11-21T08:15:25;95433.66;;;10.00;74.31
37892;BME280;45797;47.466;9.486;2023-11-21T08:20:26;95434.88;;;10.07;74.07
37892;BME280;45797;47.466;9.486;2023-11-21T08:25:31;95435.34;;;10.12;74.03
37892;BME280;45797;47.466;9.486;2023-11-21T08:30:32;95427.03;;;10.18;74.22
37892;BME280;45797;47.466;9.486;2023-11-21T08:35:35;95432.81;;;10.23;73.63
37892;BME280;45797;47.466;9.486;2023-11-21T08:40:37;95435.75;;;10.30;73.55
37892;BME280;45797;47.466;9.486;2023-11-21T08:45:48;95440.41;;;10.38;73.65
37892;BME280;45797;47.466;9.486;2023-11-21T08:50:49;95448.38;;;10.58;72.79
37892;BME280;45797;47.466;9.486;2023-11-21T08:55:52;95436.00;;;10.72;72.98
37892;BME280;45797;47.466;9.486;2023-11-21T09:00:54;95439.09;;;10.77;72.86
37892;BME280;45797;47.466;9.486;2023-11-21T09:05:57;95450.28;;;10.79;72.64
37892;BME280;45797;47.466;9.486;2023-11-21T09:10:59;95446.69;;;10.80;72.67
37892;BME280;45797;47.466;9.486;2023-11-21T09:16:04;95459.91;;;10.78;73.00
37892;BME280;45797;47.466;9.486;2023-11-21T09:21:05;95467.66;;;10.69;73.41
37892;BME280;45797;47.466;9.486;2023-11-21T09:26:06;95473.16;;;10.66;73.07
37892;BME280;45797;47.466;9.486;2023-11-21T09:31:12;95471.50;;;10.65;73.49
37892;BME280;45797;47.466;9.486;2023-11-21T09:36:45;95484.22;;;10.69;73.30
37892;BME280;45797;47.466;9.486;2023-11-21T09:41:52;95477.81;;;10.73;73.38
37892;BME280;45797;47.466;9.486;2023-11-21T09:47:03;95484.00;;;10.72;73.01
37892;BME280;45797;47.466;9.486;2023-11-21T09:52:07;95482.22;;;10.73;73.07
37892;BME280;45797;47.466;9.486;2023-11-21T09:57:09;95483.88;;;10.74;73.17
37892;BME280;45797;47.466;9.486;2023-11-21T10:02:10;95476.84;;;10.74;73.05
37892;BME280;45797;47.466;9.486;2023-11-21T10:07:21;95483.63;;;10.77;73.11
37892;BME280;45797;47.466;9.486;2023-11-21T10:12:22;95484.31;;;10.79;73.12
37892;BME280;45797;47.466;9.486;2023-11-21T10:17:24;95473.75;;;10.92;72.80
37892;BME280;45797;47.466;9.486;2023-11-21T10:22:29;95471.34;;;11.11;72.29
37892;BME280;45797;47.466;9.486;2023-11-21T10:27:31;95472.00;;;11.24;71.78
37892;BME280;45797;47.466;9.486;2023-11-21T10:32:31;95470.22;;;11.25;71.81
37892;BME280;45797;47.466;9.486;2023-11-21T10:37:33;95465.91;;;11.35;71.35
37892;BME280;45797;47.466;9.486;2023-11-21T10:42:34;95469.34;;;11.47;70.93
37892;BME280;45797;47.466;9.486;2023-11-21T10:47:38;95478.84;;;11.59;70.80
37892;BME280;45797;47.466;9.486;2023-11-21T10:52:40;95461.44;;;11.58;70.83
37892;BME280;45797;47.466;9.486;2023-11-21T10:57:45;95458.06;;;11.67;70.56
37892;BME280;45797;47.466;9.486;2023-11-21T11:02:55;95451.34;;;11.74;70.61
37892;BME280;45797;47.466;9.486;2023-11-21T11:08:04;95456.81;;;11.82;70.08
37892;BME280;45797;47.466;9.486;2023-11-21T11:13:07;95453.50;;;11.80;70.34
37892;BME280;45797;47.466;9.486;2023-11-21T11:18:10;95456.06;;;11.91;70.00
37892;BME280;45797;47.466;9.486;2023-11-21T11:34:23;95456.97;;;12.01;69.88
37892;BME280;45797;47.466;9.486;2023-11-21T11:39:27;95452.94;;;11.97;69.55
37892;BME280;45797;47.466;9.486;2023-11-21T11:50:11;95452.09;;;11.97;70.26
37892;BME280;45797;47.466;9.486;2023-11-21T11:55:26;95450.94;;;11.90;70.39
37892;BME280;45797;47.466;9.486;2023-11-21T12:00:35;95448.44;;;11.88;70.60
37892;BME280;45797;47.466;9.486;2023-11-21T12:05:58;95446.53;;;11.90;70.73
37892;BME280;45797;47.466;9.486;2023-11-21T12:11:01;95441.06;;;12.03;70.69
37892;BME280;45797;47.466;9.486;2023-11-21T12:16:01;95443.13;;;12.20;70.90
37892;BME280;45797;47.466;9.486;2023-11-21T12:21:07;95437.25;;;12.58;69.91
37892;BME280;45797;47.466;9.486;2023-11-21T12:26:10;95442.66;;;13.07;68.71
37892;BME280;45797;47.466;9.486;2023-11-21T12:31:14;95446.78;;;13.40;67.79
37892;BME280;45797;47.466;9.486;2023-11-21T12:36:16;95449.25;;;13.32;68.12
37892;BME280;45797;47.466;9.486;2023-11-21T12:41:17;95452.91;;;13.00;69.25
37892;BME280;45797;47.466;9.486;2023-11-21T12:46:18;95467.63;;;12.82;70.08
37892;BME280;45797;47.466;9.486;2023-11-21T12:51:29;95477.63;;;12.57;70.14
37892;BME280;45797;47.466;9.486;2023-11-21T12:56:54;95481.38;;;12.34;70.96
37892;BME280;45797;47.466;9.486;2023-11-21T13:02:01;95479.25;;;12.28;71.29
37892;BME280;45797;47.466;9.486;2023-11-21T13:07:06;95478.28;;;12.08;71.44
37892;BME280;45797;47.466;9.486;2023-11-21T13:12:15;95489.28;;;11.81;72.24
37892;BME280;45797;47.466;9.486;2023-11-21T13:17:20;95486.72;;;11.59;72.49
37892;BME280;45797;47.466;9.486;2023-11-21T13:22:23;95488.44;;;11.37;73.01
37892;BME280;45797;47.466;9.486;2023-11-21T13:27:26;95499.88;;;11.25;73.37
37892;BME280;45797;47.466;9.486;2023-11-21T13:32:28;95504.81;;;11.19;73.04
37892;BME280;45797;47.466;9.486;2023-11-21T13:37:31;95504.78;;;11.07;73.61
37892;BME280;45797;47.466;9.486;2023-11-21T13:42:52;95514.00;;;10.91;73.58
37892;BME280;45797;47.466;9.486;2023-11-21T13:47:55;95512.19;;;10.80;73.74
37892;BME280;45797;47.466;9.486;2023-11-21T13:53:06;95517.69;;;10.66;74.10
37892;BME280;45797;47.466;9.486;2023-11-21T13:58:18;95519.22;;;10.57;74.32
37892;BME280;45797;47.466;9.486;2023-11-21T14:03:25;95525.66;;;10.53;74.48
37892;BME280;45797;47.466;9.486;2023-11-21T14:08:47;95528.25;;;10.53;74.57
37892;BME280;45797;47.466;9.486;2023-11-21T14:13:49;95528.28;;;10.64;74.74
37892;BME280;45797;47.466;9.486;2023-11-21T14:18:51;95535.75;;;10.69;74.33
37892;BME280;45797;47.466;9.486;2023-11-21T14:24:06;95536.84;;;10.66;74.43
37892;BME280;45797;47.466;9.486;2023-11-21T14:29:17;95541.63;;;10.72;74.50
37892;BME280;45797;47.466;9.486;2023-11-21T14:34:30;95535.19;;;10.65;74.29
37892;BME280;45797;47.466;9.486;2023-11-21T14:39:38;95536.00;;;10.54;74.68
37892;BME280;45797;47.466;9.486;2023-11-21T14:44:43;95545.16;;;10.49;75.19
37892;BME280;45797;47.466;9.486;2023-11-21T14:49:47;95541.44;;;10.51;75.14
37892;BME280;45797;47.466;9.486;2023-11-21T14:55:04;95543.16;;;10.52;74.84
37892;BME280;45797;47.466;9.486;2023-11-21T15:00:23;95546.94;;;10.48;74.67
37892;BME280;45797;47.466;9.486;2023-11-21T15:05:36;95547.50;;;10.41;75.16
37892;BME280;45797;47.466;9.486;2023-11-21T15:10:39;95553.22;;;10.35;75.31
37892;BME280;45797;47.466;9.486;2023-11-21T15:15:48;95554.38;;;10.30;75.67
37892;BME280;45797;47.466;9.486;2023-11-21T15:20:50;95567.81;;;10.26;75.71
37892;BME280;45797;47.466;9.486;2023-11-21T15:25:52;95578.59;;;10.21;75.74
37892;BME280;45797;47.466;9.486;2023-11-21T15:31:02;95582.50;;;10.16;75.79
37892;BME280;45797;47.466;9.486;2023-11-21T15:36:06;95581.88;;;10.12;76.00
37892;BME280;45797;47.466;9.486;2023-11-21T15:41:11;95587.47;;;10.08;76.05
37892;BME280;45797;47.466;9.486;2023-11-21T15:46:14;95582.47;;;10.05;75.97
37892;BME280;45797;47.466;9.486;2023-11-21T15:51:15;95594.81;;;10.02;76.11
37892;BME280;45797;47.466;9.486;2023-11-21T15:56:18;95606.47;;;9.98;76.40
37892;BME280;45797;47.466;9.486;2023-11-21T16:01:18;95596.22;;;9.95;76.21
37892;BME280;45797;47.466;9.486;2023-11-21T16:06:21;95600.81;;;9.92;76.59
37892;BME280;45797;47.466;9.486;2023-11-21T16:11:22;95607.34;;;9.86;76.22
37892;BME280;45797;47.466;9.486;2023-11-21T16:16:31;95605.66;;;9.85;76.33
37892;BME280;45797;47.466;9.486;2023-11-21T16:21:47;95607.56;;;9.83;76.70
37892;BME280;45797;47.466;9.486;2023-11-21T16:26:50;95614.81;;;9.80;76.57
37892;BME280;45797;47.466;9.486;2023-11-21T16:31:51;95617.66;;;9.77;76.69
37892;BME280;45797;47.466;9.486;2023-11-21T16:36:55;95625.50;;;9.77;76.83
37892;BME280;45797;47.466;9.486;2023-11-21T16:42:06;95630.91;;;9.73;76.96
37892;BME280;45797;47.466;9.486;2023-11-21T16:47:12;95636.38;;;9.70;76.87
37892;BME280;45797;47.466;9.486;2023-11-21T16:52:14;95639.72;;;9.72;77.11
37892;BME280;45797;47.466;9.486;2023-11-21T16:57:15;95643.16;;;9.73;76.91
37892;BME280;45797;47.466;9.486;2023-11-21T17:02:18;95650.91;;;9.74;77.14
37892;BME280;45797;47.466;9.486;2023-11-21T17:07:19;95656.97;;;9.75;76.78
37892;BME280;45797;47.466;9.486;2023-11-21T17:12:22;95664.81;;;9.75;77.18
37892;BME280;45797;47.466;9.486;2023-11-21T17:17:22;95675.06;;;9.78;77.15
37892;BME280;45797;47.466;9.486;2023-11-21T17:22:25;95673.41;;;9.77;76.99
37892;BME280;45797;47.466;9.486;2023-11-21T17:27:31;95678.94;;;9.72;77.20
37892;BME280;45797;47.466;9.486;2023-11-21T17:32:45;95682.50;;;9.71;77.32
37892;BME280;45797;47.466;9.486;2023-11-21T17:37:46;95676.56;;;9.69;77.35
37892;BME280;45797;47.466;9.486;2023-11-21T17:42:46;95674.88;;;9.68;77.70
37892;BME280;45797;47.466;9.486;2023-11-21T17:47:56;95687.00;;;9.57;77.68
37892;BME280;45797;47.466;9.486;2023-11-21T17:53:04;95692.47;;;9.54;77.63
37892;BME280;45797;47.466;9.486;2023-11-21T17:58:04;95703.47;;;9.59;77.69
37892;BME280;45797;47.466;9.486;2023-11-21T18:03:06;95703.34;;;9.60;78.09
37892;BME280;45797;47.466;9.486;2023-11-21T18:08:07;95703.34;;;9.60;77.91
37892;BME280;45797;47.466;9.486;2023-11-21T18:13:16;95713.81;;;9.60;77.87
37892;BME280;45797;47.466;9.486;2023-11-21T18:18:16;95711.41;;;9.57;78.03
37892;BME280;45797;47.466;9.486;2023-11-21T18:23:24;95721.22;;;9.54;77.95
37892;BME280;45797;47.466;9.486;2023-11-21T18:28:31;95716.72;;;9.56;78.34
37892;BME280;45797;47.466;9.486;2023-11-21T18:33:34;95725.22;;;9.59;78.19
37892;BME280;45797;47.466;9.486;2023-11-21T18:38:43;95726.16;;;9.58;77.91
37892;BME280;45797;47.466;9.486;2023-11-21T18:43:59;95728.78;;;9.58;78.06
37892;BME280;45797;47.466;9.486;2023-11-21T18:49:01;95733.78;;;9.61;78.33
37892;BME280;45797;47.466;9.486;2023-11-21T18:54:03;95736.28;;;9.63;78.00
37892;BME280;45797;47.466;9.486;2023-11-21T18:59:08;95747.34;;;9.66;78.31
37892;BME280;45797;47.466;9.486;2023-11-21T19:04:10;95743.72;;;9.69;78.02
37892;BME280;45797;47.466;9.486;2023-11-21T19:09:15;95743.72;;;9.69;78.43
37892;BME280;45797;47.466;9.486;2023-11-21T19:14:29;95756.69;;;9.70;78.10
37892;BME280;45797;47.466;9.486;2023-11-21T19:19:30;95762.63;;;9.72;78.09
37892;BME280;45797;47.466;9.486;2023-11-21T19:24:31;95771.09;;;9.63;78.36
37892;BME280;45797;47.466;9.486;2023-11-21T19:29:32;95774.88;;;9.59;78.12
37892;BME280;45797;47.466;9.486;2023-11-21T19:34:34;95780.41;;;9.55;77.81
37892;BME280;45797;47.466;9.486;2023-11-21T19:39:35;95794.31;;;9.55;78.20
37892;BME280;45797;47.466;9.486;2023-11-21T19:44:35;95798.94;;;9.52;78.08
37892;BME280;45797;47.466;9.486;2023-11-21T19:49:37;95797.03;;;9.54;77.98
37892;BME280;45797;47.466;9.486;2023-11-21T19:54:49;95813.78;;;9.51;78.23
37892;BME280;45797;47.466;9.486;2023-11-21T19:59:50;95818.78;;;9.54;78.29
37892;BME280;45797;47.466;9.486;2023-11-21T20:05:05;95830.31;;;9.52;78.33
37892;BME280;45797;47.466;9.486;2023-11-21T20:10:06;95830.19;;;9.53;78.30
37892;BME280;45797;47.466;9.486;2023-11-21T20:15:08;95850.16;;;9.54;77.82
37892;BME280;45797;47.466;9.486;2023-11-21T20:20:12;95851.00;;;9.55;77.90
37892;BME280;45797;47.466;9.486;2023-11-21T20:25:17;95860.63;;;9.54;78.07
37892;BME280;45797;47.466;9.486;2023-11-21T20:30:19;95863.47;;;9.51;78.23
37892;BME280;45797;47.466;9.486;2023-11-21T20:35:22;95861.13;;;9.47;78.34
37892;BME280;45797;47.466;9.486;2023-11-21T20:40:23;95865.84;;;9.41;78.19
37892;BME280;45797;47.466;9.486;2023-11-21T20:45:33;95869.81;;;9.34;78.40
37892;BME280;45797;47.466;9.486;2023-11-21T20:50:56;95884.03;;;9.30;78.21
37892;BME280;45797;47.466;9.486;2023-11-21T21:01:41;95896.88;;;9.06;78.58
37892;BME280;45797;47.466;9.486;2023-11-21T21:06:45;95893.75;;;9.01;79.01
37892;BME280;45797;47.466;9.486;2023-11-21T21:11:47;95901.50;;;9.03;79.07
37892;BME280;45797;47.466;9.486;2023-11-21T21:16:59;95906.50;;;9.06;79.09
37892;BME280;45797;47.466;9.486;2023-11-21T21:22:00;95898.56;;;9.07;79.22
37892;BME280;45797;47.466;9.486;2023-11-21T21:27:03;95909.75;;;9.09;79.01
37892;BME280;45797;47.466;9.486;2023-11-21T21:32:05;95906.50;;;9.06;79.59
37892;BME280;45797;47.466;9.486;2023-11-21T21:37:09;95916.50;;;8.99;79.28
37892;BME280;45797;47.466;9.486;2023-11-21T21:42:09;95911.59;;;8.95;79.39
37892;BME280;45797;47.466;9.486;2023-11-21T21:47:09;95915.03;;;8.95;79.43
37892;BME280;45797;47.466;9.486;2023-11-21T21:52:12;95920.06;;;8.98;79.63
37892;BME280;45797;47.466;9.486;2023-11-21T21:57:14;95926.78;;;9.02;79.83
37892;BME280;45797;47.466;9.486;2023-11-21T22:02:17;95926.19;;;9.11;79.52
37892;BME280;45797;47.466;9.486;2023-11-21T22:07:17;95942.38;;;9.16;79.67
37892;BME280;45797;47.466;9.486;2023-11-21T22:12:19;95945.16;;;9.28;79.53
37892;BME280;45797;47.466;9.486;2023-11-21T22:17:21;95939.00;;;9.29;79.39
37892;BME280;45797;47.466;9.486;2023-11-21T22:22:23;95944.25;;;9.29;79.34
37892;BME280;45797;47.466;9.486;2023-11-21T22:27:25;95934.78;;;9.26;79.12
37892;BME280;45797;47.466;9.486;2023-11-21T22:32:27;95949.84;;;9.23;79.15
37892;BME280;45797;47.466;9.486;2023-11-21T22:37:28;95956.00;;;9.22;79.26
37892;BME280;45797;47.466;9.486;2023-11-21T22:42:28;95951.91;;;9.18;79.16
37892;BME280;45797;47.466;9.486;2023-11-21T22:47:29;95946.50;;;9.21;79.54
37892;BME280;45797;47.466;9.486;2023-11-21T22:52:33;95954.44;;;9.19;79.37
37892;BME280;45797;47.466;9.486;2023-11-21T22:57:35;95949.94;;;9.21;79.17
37892;BME280;45797;47.466;9.486;2023-11-21T23:02:41;95946.50;;;9.21;79.54
37892;BME280;45797;47.466;9.486;2023-11-21T23:07:44;95951.72;;;9.21;79.50
37892;BME280;45797;47.466;9.486;2023-11-21T23:12:52;95953.50;;;9.20;79.57
37892;BME280;45797;47.466;9.486;2023-11-21T23:17:52;95962.19;;;9.21;78.91
37892;BME280;45797;47.466;9.486;2023-11-21T23:22:59;95959.00;;;9.15;79.50
37892;BME280;45797;47.466;9.486;2023-11-21T23:28:15;95967.78;;;9.14;79.44
37892;BME280;45797;47.466;9.486;2023-11-21T23:33:26;95960.56;;;9.18;79.31
37892;BME280;45797;47.466;9.486;2023-11-21T23:38:32;95980.38;;;9.22;79.22
37892;BME280;45797;47.466;9.486;2023-11-21T23:43:41;95979.72;;;9.19;79.29
37892;BME280;45797;47.466;9.486;2023-11-21T23:48:43;95971.13;;;9.16;79.68
37892;BME280;45797;47.466;9.486;2023-11-21T23:53:54;95966.00;;;9.15;79.12
37892;BME280;45797;47.466;9.486;2023-11-21T23:58:56;95964.44;;;9.12;79.23
